Time;durP1;ratioP1;P1;durP2;ratioP2;P2;SDS_P1;SDS_P2;PMS_P1;PMS_P2;Temp;Humidity;BMP_temperature;BMP_pressure;BME280_temperature;BME280_humidity;BME280_pressure;Samples;Min_cycle;Max_cycle;Signal;HPM_P1;HPM_P2
2022/08/17 07:44:15;;;;;;;5.47;3.50;;;;;;;26.23;46.62;98429.31;5092574;27;1960353;-80
2022/08/17 07:49:38;;;;;;;10.68;4.45;;;;;;;26.71;43.88;98430.91;5159512;27;20080;-80
2022/08/17 07:52:08;;;;;;;9.13;3.72;;;;;;;26.83;43.77;98431.25;5158133;27;20050;-80
2022/08/17 07:54:35;;;;;;;;;;;;;;;26.74;43.78;98427.50;5159698;27;20412;-80
2022/08/17 07:57:25;;;;;;;6.18;3.40;;;;;;;26.80;43.62;98432.69;5169743;27;20038;-80
2022/08/17 08:00:14;;;;;;;3.97;3.42;;;;;;;26.91;43.01;98430.50;5158676;27;20074;-80
2022/08/17 08:02:44;;;;;;;5.13;3.58;;;;;;;27.06;43.21;98439.69;5143420;27;20394;-80
2022/08/17 08:05:17;;;;;;;8.52;3.40;;;;;;;26.92;42.86;98443.31;5149260;27;20055;-80
2022/08/17 08:07:53;;;;;;;5.97;3.10;;;;;;;27.12;42.89;98444.84;5152289;27;20046;-80
2022/08/17 08:10:28;;;;;;;16.80;3.63;;;;;;;27.02;42.90;98457.06;5155550;27;20057;-81
2022/08/17 08:13:04;;;;;;;7.72;3.47;;;;;;;27.13;43.44;98454.88;5136579;27;20049;-81
2022/08/17 08:15:36;;;;;;;4.60;3.47;;;;;;;27.05;43.63;98454.78;5168961;27;20054;-81
2022/08/17 08:18:05;;;;;;;7.63;3.50;;;;;;;27.13;43.40;98448.44;5166167;27;20303;-81
2022/08/17 08:20:48;;;;;;;6.85;3.13;;;;;;;26.93;43.55;98472.84;5151984;27;20046;-81
2022/08/17 08:23:24;;;;;;;8.80;3.72;;;;;;;26.77;44.06;98469.56;5163632;27;20042;-80
2022/08/17 08:26:02;;;;;;;8.75;3.42;;;;;;;26.79;44.39;98467.28;5148620;27;20122;-80
2022/08/17 08:28:36;;;;;;;6.88;3.13;;;;;;;26.65;44.17;98472.81;5165353;27;20103;-81
2022/08/17 08:31:14;;;;;;;4.40;3.30;;;;;;;26.42;44.70;98471.00;5148651;27;20481;-80
2022/08/17 08:33:55;;;;;;;6.43;3.47;;;;;;;26.13;45.53;98477.66;5155098;27;20047;-81
2022/08/17 08:36:38;;;;;;;6.00;3.53;;;;;;;26.39;45.28;98483.63;5157870;27;20394;-81
2022/08/17 08:39:11;;;;;;;6.50;2.78;;;;;;;26.34;45.18;98475.34;5148728;27;20550;-81
2022/08/17 08:41:48;;;;;;;5.13;3.08;;;;;;;26.48;44.57;98478.97;5156409;27;20129;-80
2022/08/17 08:44:36;;;;;;;5.97;3.25;;;;;;;26.45;44.11;98468.47;5127239;27;20059;-80
2022/08/17 08:47:16;;;;;;;5.30;3.00;;;;;;;26.49;44.26;98480.63;5116048;27;20119;-80
2022/08/17 08:50:11;;;;;;;8.77;3.33;;;;;;;26.64;43.95;98476.72;5135961;27;20074;-80
2022/08/17 08:53:05;;;;;;;6.32;3.67;;;;;;;26.95;43.71;98478.94;5127898;27;20047;-80
2022/08/17 08:55:48;;;;;;;7.65;4.10;;;;;;;26.93;43.55;98475.63;5110457;27;20048;-80
2022/08/17 08:58:18;;;;;;;5.28;3.38;;;;;;;27.14;43.99;98478.00;5119873;27;20084;-80
2022/08/17 09:00:48;;;;;;;6.78;3.53;;;;;;;26.97;43.89;98473.88;5123746;27;20148;-80
2022/08/17 09:03:32;;;;;;;5.05;3.53;;;;;;;26.88;43.95;98467.38;5119626;27;20047;-80
2022/08/17 09:06:11;;;;;;;4.95;3.53;;;;;;;26.97;43.46;98487.00;5123539;27;20055;-80
2022/08/17 09:08:51;;;;;;;8.35;3.47;;;;;;;26.90;43.75;98478.22;5114941;27;20109;-81
2022/08/17 09:11:25;;;;;;;7.38;3.17;;;;;;;26.86;44.44;98491.97;5121803;27;20180;-81
2022/08/17 09:14:04;;;;;;;6.30;3.30;;;;;;;26.96;44.28;98488.13;5121716;27;20052;-81
2022/08/17 09:16:36;;;;;;;6.35;2.88;;;;;;;27.01;44.08;98496.41;5114068;27;20516;-81
2022/08/17 09:19:09;;;;;;;5.43;2.95;;;;;;;26.84;43.53;98492.28;5121323;27;20053;-81
2022/08/17 09:21:41;;;;;;;6.80;3.30;;;;;;;26.69;44.37;98502.88;5122197;27;20043;-80
2022/08/17 09:24:13;;;;;;;5.40;2.72;;;;;;;26.64;44.59;98487.88;5115288;27;20055;-81
2022/08/17 09:26:46;;;;;;;5.97;2.97;;;;;;;26.67;44.15;98483.69;5120691;27;20096;-80
2022/08/17 09:29:15;;;;;;;4.25;2.80;;;;;;;26.71;45.16;98479.16;5117300;27;20051;-81
2022/08/17 09:31:49;;;;;;;6.47;3.38;;;;;;;26.76;44.83;98486.59;5113184;27;20088;-81
2022/08/17 09:34:21;;;;;;;10.05;2.90;;;;;;;26.89;43.88;98490.50;5128774;27;20112;-81
2022/08/17 09:36:59;;;;;;;5.40;3.05;;;;;;;26.84;43.27;98491.44;5113157;28;20059;-80
2022/08/17 09:39:34;;;;;;;4.18;2.58;;;;;;;26.81;42.26;98495.69;5123439;27;20066;-81
2022/08/17 09:42:10;;;;;;;7.03;2.83;;;;;;;26.90;42.77;98506.09;5116421;27;20096;-80
2022/08/17 09:44:40;;;;;;;6.35;2.85;;;;;;;26.53;42.86;98492.00;5125088;27;20101;-80
2022/08/17 09:47:16;;;;;;;3.67;2.40;;;;;;;26.47;43.13;98502.41;5123191;27;20058;-80
2022/08/17 09:49:49;;;;;;;7.10;2.78;;;;;;;26.62;43.52;98506.06;5113165;27;20086;-80
2022/08/17 09:52:20;;;;;;;7.70;2.85;;;;;;;26.36;43.98;98512.09;5092089;28;20052;-82
2022/08/17 09:54:50;;;;;;;3.80;3.03;;;;;;;26.24;44.83;98522.88;5120231;27;20103;-81
2022/08/17 09:57:27;;;;;;;4.13;2.80;;;;;;;26.04;44.73;98526.81;5120371;27;20092;-81
2022/08/17 10:00:11;;;;;;;4.55;3.10;;;;;;;25.82;44.98;98527.38;5117580;27;20092;-81
2022/08/17 10:02:54;;;;;;;4.85;3.03;;;;;;;25.76;45.66;98526.66;5111269;28;20483;-81
2022/08/17 10:05:29;;;;;;;4.80;2.63;;;;;;;25.60;46.51;98528.81;5110923;27;20055;-80
2022/08/17 10:08:08;;;;;;;14.98;3.30;;;;;;;25.57;46.77;98533.03;5124877;27;20105;-80
2022/08/17 10:10:41;;;;;;;3.58;2.88;;;;;;;25.56;46.55;98528.59;5119286;27;20040;-80
2022/08/17 10:13:20;;;;;;;8.13;3.25;;;;;;;25.27;47.39;98531.44;5128072;27;20107;-80
2022/08/17 10:15:52;;;;;;;4.97;3.15;;;;;;;25.31;48.40;98531.69;5124861;27;20469;-80
2022/08/17 10:18:30;;;;;;;9.43;3.25;;;;;;;25.45;51.38;98524.28;5123951;27;20489;-80
2022/08/17 10:26:34;;;;;;;4.63;3.20;;;;;;;25.00;57.40;98527.31;5113778;27;20098;-79
2022/08/17 10:29:06;;;;;;;7.57;4.00;;;;;;;24.92;60.86;98525.19;5111624;27;20108;-80
2022/08/17 10:31:38;;;;;;;5.22;3.45;;;;;;;24.84;65.44;98520.25;5112750;27;20043;-80
2022/08/17 10:34:33;;;;;;;5.90;3.70;;;;;;;24.98;66.47;98528.75;5116189;27;20482;-80
2022/08/17 10:37:09;;;;;;;10.15;4.70;;;;;;;24.83;73.60;98541.69;5112453;27;20040;-79
2022/08/17 10:39:46;;;;;;;9.90;4.32;;;;;;;24.52;82.36;98541.97;5111803;28;20076;-78
2022/08/17 10:42:23;;;;;;;10.90;4.32;;;;;;;24.18;83.20;98550.31;5111278;27;20055;-79
2022/08/17 10:44:55;;;;;;;6.15;3.95;;;;;;;24.21;83.60;98552.50;5118548;27;20392;-78
2022/08/17 10:47:25;;;;;;;7.53;4.35;;;;;;;24.47;84.22;98567.00;5113180;27;20172;-78
2022/08/17 10:49:54;;;;;;;8.27;4.53;;;;;;;24.36;89.88;98573.78;5115408;27;20109;-78
2022/08/17 10:52:48;;;;;;;4.80;4.30;;;;;;;24.44;84.41;98578.69;5115609;27;20047;-78
2022/08/17 10:55:17;;;;;;;6.82;4.60;;;;;;;24.45;80.63;98565.63;5125865;27;20410;-78
2022/08/17 10:57:46;;;;;;;24.52;6.65;;;;;;;24.66;82.70;98574.63;5118414;27;20126;-78
2022/08/17 11:00:46;;;;;;;5.50;4.45;;;;;;;24.72;88.12;98576.25;5113662;28;20436;-79
2022/08/17 11:03:18;;;;;;;;;;;;;;;24.65;83.96;98587.72;5119722;27;20044;-78
2022/08/17 11:05:53;;;;;;;5.00;4.32;;;;;;;24.51;81.44;98586.69;5127642;27;19924;-78
2022/08/17 11:09:07;;;;;;;8.13;3.95;;;;;;;24.45;77.60;98587.84;5119694;27;20498;-78
2022/08/17 11:12:11;;;;;;;9.15;4.70;;;;;;;24.34;76.96;98601.84;5120148;27;20050;-78
2022/08/17 11:15:03;;;;;;;4.72;4.10;;;;;;;24.32;81.89;98594.91;5089635;28;20047;-78
2022/08/17 11:17:49;;;;;;;5.75;3.80;;;;;;;24.27;77.32;98598.56;5110669;28;20051;-78
2022/08/17 11:20:55;;;;;;;8.43;4.72;;;;;;;24.17;76.75;98607.78;5111444;28;20051;-78
2022/08/17 11:23:41;;;;;;;5.97;4.80;;;;;;;24.15;85.93;98617.53;5091367;28;20089;-79
2022/08/17 11:26:24;;;;;;;7.35;4.45;;;;;;;23.94;87.49;98614.06;5118702;27;20055;-79
2022/08/17 11:28:57;;;;;;;6.95;4.43;;;;;;;23.96;84.65;98614.59;5114936;27;20047;-78
2022/08/17 11:31:29;;;;;;;9.88;4.85;;;;;;;23.98;83.05;98615.13;5110975;28;20097;-79
2022/08/17 11:34:05;;;;;;;6.22;4.43;;;;;;;24.07;76.88;98624.50;5118026;27;20482;-79
2022/08/17 11:37:06;;;;;;;11.18;4.68;;;;;;;24.02;75.14;98625.34;5116096;27;20100;-79
2022/08/17 11:40:07;;;;;;;8.02;3.65;;;;;;;23.99;71.19;98609.28;5118480;28;20047;-78
2022/08/17 11:42:51;;;;;;;8.68;4.07;;;;;;;23.93;70.61;98617.94;5091901;28;20043;-78
2022/08/17 11:45:39;;;;;;;7.88;3.70;;;;;;;23.96;73.36;98618.19;5116570;28;20045;-79
2022/08/17 11:51:33;;;;;;;7.22;3.65;;;;;;;24.01;66.66;98626.50;5113714;28;20054;-78
2022/08/17 11:54:08;;;;;;;10.90;3.67;;;;;;;23.98;68.54;98634.56;5115529;28;20096;-79
2022/08/17 11:56:44;;;;;;;8.38;3.22;;;;;;;23.84;68.48;98612.94;5110480;28;20050;-79
2022/08/17 11:59:53;;;;;;;5.22;3.15;;;;;;;23.91;63.04;98622.91;5128158;28;20103;-79
2022/08/17 12:02:42;;;;;;;5.90;3.03;;;;;;;23.98;62.88;98615.97;5035270;28;20053;-79
2022/08/17 12:05:33;;;;;;;6.57;3.25;;;;;;;23.95;66.57;98618.47;5027869;28;21259;-79
2022/08/17 12:08:18;;;;;;;7.97;3.55;;;;;;;23.81;69.26;98618.25;5100718;28;20050;-79
2022/08/17 12:11:07;;;;;;;7.95;3.83;;;;;;;23.73;69.03;98613.31;5116941;28;20047;-79
2022/08/17 12:13:42;;;;;;;5.43;3.28;;;;;;;23.77;67.58;98618.00;5109621;28;20059;-79
2022/08/17 12:16:15;;;;;;;3.40;3.03;;;;;;;23.87;66.91;98613.53;5125300;28;20047;-79
2022/08/17 12:18:49;;;;;;;4.40;3.97;;;;;;;23.76;68.01;98608.00;5124330;28;20407;-79
2022/08/17 12:21:26;;;;;;;7.20;3.65;;;;;;;23.78;69.50;98604.94;5111015;28;20070;-79
2022/08/17 12:24:06;;;;;;;5.10;3.60;;;;;;;23.80;72.28;98595.22;5109857;28;20040;-80
2022/08/17 12:26:35;;;;;;;13.55;4.53;;;;;;;23.91;73.60;98586.84;5110168;28;20062;-79
2022/08/17 12:29:06;;;;;;;4.05;3.30;;;;;;;24.03;69.39;98565.13;5116310;27;20043;-79
2022/08/17 12:31:35;;;;;;;6.40;3.22;;;;;;;24.08;71.32;98580.91;5123666;27;20490;-79
2022/08/17 12:34:03;;;;;;;9.52;3.95;;;;;;;24.16;67.94;98589.47;5115702;27;20040;-79
2022/08/17 12:36:30;;;;;;;3.53;2.92;;;;;;;24.21;66.87;98580.28;5114637;27;20392;-79
2022/08/17 12:39:02;;;;;;;8.25;3.55;;;;;;;24.26;59.39;98580.22;5114069;28;20551;-80
2022/08/17 12:41:33;;;;;;;8.02;3.08;;;;;;;24.41;59.12;98573.72;5113944;28;20643;-79
2022/08/17 12:44:01;;;;;;;4.15;2.75;;;;;;;24.44;58.21;98575.09;5121368;27;20039;-79
2022/08/17 12:46:32;;;;;;;5.25;2.72;;;;;;;24.36;56.61;98569.03;5115397;27;20138;-79
2022/08/17 12:49:21;;;;;;;3.20;2.90;;;;;;;24.33;56.18;98555.72;5118943;27;20066;-79
2022/08/17 12:51:49;;;;;;;2.53;2.33;;;;;;;24.33;56.69;98554.91;5119363;27;20237;-79
2022/08/17 12:54:40;;;;;;;4.55;2.88;;;;;;;24.47;57.05;98550.31;5112874;28;20051;-80
2022/08/17 12:57:13;;;;;;;3.67;2.97;;;;;;;24.52;58.21;98538.34;5122049;27;20044;-79
2022/08/17 12:59:41;;;;;;;6.30;2.70;;;;;;;24.55;58.52;98532.19;5116028;27;20050;-80
2022/08/17 13:02:20;;;;;;;5.22;2.90;;;;;;;24.55;60.22;98521.09;5113142;27;20052;-79
2022/08/17 13:04:46;;;;;;;6.65;3.22;;;;;;;24.71;60.89;98517.06;5129819;27;20051;-79
2022/08/17 13:07:26;;;;;;;8.18;3.20;;;;;;;24.85;60.25;98505.25;5122627;27;20097;-79
2022/08/17 13:09:53;;;;;;;5.10;3.40;;;;;;;25.24;57.99;98507.00;5113776;27;20083;-80
2022/08/17 13:12:26;;;;;;;8.45;3.28;;;;;;;25.36;57.00;98503.84;5118584;27;20048;-80
2022/08/17 13:14:53;;;;;;;5.55;4.20;;;;;;;25.24;56.86;98498.66;5112268;27;20044;-80
2022/08/17 13:17:33;;;;;;;5.97;2.72;;;;;;;25.23;56.48;98495.06;5117082;27;20054;-80
2022/08/17 13:20:01;;;;;;;5.55;3.10;;;;;;;25.34;57.51;98486.63;5113370;27;20483;-79
2022/08/17 13:22:29;;;;;;;4.40;3.50;;;;;;;25.37;56.91;98464.59;5112740;28;20040;-81
2022/08/17 13:25:45;;;;;;;3.75;3.13;;;;;;;25.40;57.56;98468.72;5130213;27;20047;-81
2022/08/17 13:28:23;;;;;;;3.67;2.83;;;;;;;25.58;56.25;98467.91;5050455;28;20053;-82
2022/08/17 13:31:43;;;;;;;9.43;3.15;;;;;;;25.71;52.92;98459.91;5032246;28;20134;-81
2022/08/17 13:35:11;;;;;;;7.70;3.17;;;;;;;25.72;53.68;98439.31;5030653;28;20053;-81
2022/08/17 13:45:34;;;;;;;6.97;4.95;;;;;;;26.07;54.30;98453.81;5067583;28;20048;-81
2022/08/17 13:48:21;;;;;;;6.95;3.33;;;;;;;26.29;53.80;98464.28;5080885;27;20100;-82
2022/08/17 13:51:18;;;;;;;7.38;3.38;;;;;;;26.44;51.79;98480.72;5117958;27;20122;-82
2022/08/17 13:54:02;;;;;;;5.97;3.38;;;;;;;26.94;50.96;98479.25;5112612;27;20044;-81
2022/08/17 13:57:08;;;;;;;13.00;3.50;;;;;;;27.18;50.19;98463.13;5110610;28;20526;-81
2022/08/17 13:59:43;;;;;;;8.80;3.70;;;;;;;27.75;48.06;98455.47;5125062;27;20555;-81
2022/08/17 14:02:11;;;;;;;9.32;2.97;;;;;;;28.17;43.11;98458.94;5109517;28;20062;-81
2022/08/17 14:04:42;;;;;;;3.17;2.38;;;;;;;28.36;42.79;98469.91;5118290;27;20083;-81
2022/08/17 14:07:30;;;;;;;5.97;3.47;;;;;;;28.74;42.61;98449.88;5114985;27;20054;-81
2022/08/17 14:10:25;;;;;;;6.43;3.38;;;;;;;28.72;41.63;98435.41;5110181;27;20458;-82
2022/08/17 14:13:28;;;;;;;3.83;3.00;;;;;;;28.75;38.78;98431.97;5113009;27;20040;-81
2022/08/17 14:15:59;;;;;;;3.65;2.33;;;;;;;28.98;35.17;98427.13;5028225;28;20096;-81
2022/08/17 14:18:27;;;;;;;3.30;3.00;;;;;;;28.95;37.66;98423.00;5112926;27;20132;-81
2022/08/17 14:20:55;;;;;;;4.47;2.90;;;;;;;28.86;37.10;98422.16;5118535;27;20466;-81
2022/08/17 14:23:23;;;;;;;3.63;2.53;;;;;;;28.72;36.56;98411.06;5114877;27;20104;-81
2022/08/17 14:29:47;;;;;;;3.58;2.58;;;;;;;29.27;36.02;98403.34;5017271;28;20078;-81
2022/08/17 14:32:19;;;;;;;3.35;2.53;;;;;;;29.10;36.21;98399.34;5126500;27;20049;-81
2022/08/17 14:34:48;;;;;;;4.03;2.83;;;;;;;29.14;35.47;98391.91;5109905;27;20051;-81
2022/08/17 14:41:17;;;;;;;3.28;2.60;;;;;;;28.80;36.12;98400.22;4949487;28;20510;-81
2022/08/17 14:43:45;;;;;;;4.90;2.60;;;;;;;28.84;35.56;98385.28;4960210;28;20526;-81
2022/08/17 14:46:12;;;;;;;12.20;3.85;;;;;;;28.93;35.31;98402.91;5045920;28;20102;-82
2022/08/17 14:48:44;;;;;;;5.03;2.67;;;;;;;28.97;36.27;98405.88;5045433;28;20488;-82
2022/08/17 14:51:14;;;;;;;3.17;2.50;;;;;;;29.01;36.02;98406.03;5116159;27;20415;-82
2022/08/17 14:53:41;;;;;;;3.83;2.75;;;;;;;29.34;34.64;98391.66;5124221;27;20074;-82
2022/08/17 14:56:08;;;;;;;2.72;2.33;;;;;;;29.37;33.79;98411.38;5115393;27;20047;-82
2022/08/17 14:58:36;;;;;;;5.43;2.60;;;;;;;29.37;33.55;98405.78;5126693;27;20043;-82
2022/08/17 15:01:35;;;;;;;4.80;2.70;;;;;;;29.12;32.89;98399.81;5109376;28;20259;-82
2022/08/17 15:04:01;;;;;;;3.28;2.08;;;;;;;29.43;33.75;98418.50;5110723;27;20054;-82
2022/08/17 15:06:33;;;;;;;5.55;2.88;;;;;;;29.33;32.32;98409.59;5111893;27;20503;-82
2022/08/17 15:09:00;;;;;;;7.50;2.47;;;;;;;29.28;33.60;98404.97;5126691;27;20511;-81
2022/08/17 15:11:26;;;;;;;3.90;2.15;;;;;;;29.30;33.89;98409.09;5113820;27;20056;-82
2022/08/17 15:13:54;;;;;;;16.63;3.25;;;;;;;29.23;33.65;98407.94;5108652;27;20043;-81
2022/08/17 15:16:21;;;;;;;9.18;2.85;;;;;;;28.94;34.02;98404.56;5112540;27;20047;-81
2022/08/17 15:18:48;;;;;;;3.35;2.30;;;;;;;28.81;34.43;98405.50;5121344;27;20108;-82
2022/08/17 15:21:15;;;;;;;9.05;2.70;;;;;;;28.72;35.48;98404.66;5112359;27;20050;-82
2022/08/17 15:23:42;;;;;;;7.07;2.35;;;;;;;28.60;36.97;98408.06;5109091;27;20062;-82
2022/08/17 15:26:12;;;;;;;5.07;2.70;;;;;;;28.69;36.83;98422.06;5115503;27;20502;-82
2022/08/17 15:28:39;;;;;;;2.58;2.38;;;;;;;28.73;38.44;98420.28;5128612;27;20051;-81
2022/08/17 15:31:06;;;;;;;3.90;2.35;;;;;;;28.62;38.42;98411.38;5110557;27;20505;-82
2022/08/17 15:33:33;;;;;;;8.75;2.17;;;;;;;28.67;39.31;98408.41;5107501;28;20035;-82
2022/08/17 15:36:02;;;;;;;3.33;2.55;;;;;;;28.63;40.05;98399.03;5110312;27;20058;-82
2022/08/17 15:38:37;;;;;;;2.40;2.20;;;;;;;28.30;40.33;98390.94;5114901;27;20475;-82
2022/08/17 15:41:06;;;;;;;6.32;2.70;;;;;;;28.30;39.16;98385.38;5114876;27;20047;-81
2022/08/17 15:43:33;;;;;;;11.95;2.88;;;;;;;28.34;38.91;98391.97;5108148;28;20040;-81
2022/08/17 15:46:02;;;;;;;8.30;2.60;;;;;;;28.21;39.51;98384.50;5108661;28;20131;-82
2022/08/17 15:48:40;;;;;;;17.60;3.30;;;;;;;28.17;39.54;98397.44;5108259;28;20457;-83
2022/08/17 15:51:08;;;;;;;8.52;3.00;;;;;;;28.11;39.54;98388.41;5108296;28;20078;-82
2022/08/17 15:53:35;;;;;;;10.50;3.00;;;;;;;27.99;39.90;98396.56;5105507;28;20048;-82
2022/08/17 15:56:03;;;;;;;10.85;3.10;;;;;;;27.81;40.55;98390.81;5108339;28;20047;-82
2022/08/17 15:58:33;;;;;;;7.55;3.60;;;;;;;27.91;39.71;98398.09;5116819;28;20096;-83
2022/08/17 16:01:00;;;;;;;7.07;2.70;;;;;;;27.80;39.63;98394.75;5108618;28;20092;-82
2022/08/17 16:03:27;;;;;;;3.70;2.78;;;;;;;27.72;40.62;98399.13;5107576;28;20418;-83
2022/08/17 16:05:55;;;;;;;11.77;2.80;;;;;;;27.66;41.17;98386.44;5118573;27;20048;-82
2022/08/17 16:08:22;;;;;;;6.28;2.60;;;;;;;27.65;42.65;98389.53;5113593;27;20134;-83
2022/08/17 16:10:50;;;;;;;5.20;3.00;;;;;;;27.57;43.40;98393.09;5122558;27;20062;-83
2022/08/17 16:13:17;;;;;;;5.03;2.72;;;;;;;27.51;43.69;98396.00;5118154;27;20488;-82
2022/08/17 16:15:53;;;;;;;5.65;3.53;;;;;;;27.39;43.58;98392.13;5111832;27;20383;-82
2022/08/17 16:18:20;;;;;;;6.00;2.72;;;;;;;27.29;43.55;98402.34;5115960;27;20055;-81
2022/08/17 16:20:49;;;;;;;4.35;2.80;;;;;;;27.28;44.17;98383.13;5118743;27;20051;-82
2022/08/17 16:23:17;;;;;;;4.03;2.38;;;;;;;27.05;45.95;98382.25;5120022;27;20044;-82
2022/08/17 16:25:45;;;;;;;5.57;3.17;;;;;;;26.81;46.96;98381.38;5123088;27;20050;-82
2022/08/17 16:28:13;;;;;;;10.68;3.28;;;;;;;26.69;47.84;98363.50;5116828;27;20075;-82
2022/08/17 16:30:40;;;;;;;4.57;3.28;;;;;;;26.81;47.92;98380.53;5117439;27;20047;-82
2022/08/17 16:33:07;;;;;;;3.28;2.60;;;;;;;26.66;48.08;98376.06;5121078;27;20047;-82
2022/08/17 16:35:33;;;;;;;9.90;2.42;;;;;;;26.43;49.18;98375.16;5126415;27;20049;-82
2022/08/17 16:38:01;;;;;;;8.23;3.17;;;;;;;26.54;49.09;98376.56;5124672;27;20052;-82
2022/08/17 16:40:30;;;;;;;5.22;2.60;;;;;;;26.44;49.37;98372.03;5127559;27;20470;-82
2022/08/17 16:42:57;;;;;;;5.93;2.97;;;;;;;26.50;49.14;98381.13;5123137;27;20138;-81
2022/08/17 16:45:26;;;;;;;5.03;2.80;;;;;;;26.57;49.20;98369.56;5123910;27;20131;-82
2022/08/17 16:47:53;;;;;;;3.65;2.85;;;;;;;26.51;49.29;98377.19;5117917;27;20043;-81
2022/08/17 16:50:23;;;;;;;7.63;3.33;;;;;;;26.59;49.18;98370.91;5114802;27;20039;-82
2022/08/17 16:52:50;;;;;;;4.47;3.00;;;;;;;26.42;49.58;98376.28;5108972;28;20108;-82
2022/08/17 16:55:24;;;;;;;6.82;3.25;;;;;;;26.28;49.93;98363.16;5112067;28;20054;-82
2022/08/17 16:57:52;;;;;;;11.07;3.63;;;;;;;26.33;49.89;98373.38;5110886;27;20411;-82
